Terminal Aerodrome Forecast
Issued by NWS Greer, SC

Home | Current Version | Previous Version | Text Only | Print | Product List | Glossary On
Versions: 1 2 3 4 5 6 7 8 9 10 11 12 13 14 15 16 17 18 19 20 21 22 23 24 25 26 27 28 29 30 31 32
000
FTUS42 KGSP 141133
TAFCLT
TAF
KCLT 141133Z 1412/1518 23005KT P6SM FEW250
     FM141600 26005KT P6SM FEW250
     FM150300 05004KT P6SM FEW050
     FM150900 04004KT P6SM FEW250
     FM151700 31004KT P6SM SCT250=

USA.gov is the U.S. government's official web portal to all federal, state and local government web resources and services.